Time;durP1;ratioP1;P1;durP2;ratioP2;P2;SDS_P1;SDS_P2;PMS_P1;PMS_P2;Temp;Humidity;BMP_temperature;BMP_pressure;BME280_temperature;BME280_humidity;BME280_pressure;Samples;Min_cycle;Max_cycle;Signal;HPM_P1;HPM_P2
2022/06/28 00:00:36;;;;;;;11.23;1.10;;;;;;;-145.67;100.00;66521.78;4998018;28;20378;-69
2022/06/28 00:03:04;;;;;;;5.57;1.08;;;;;;;-145.67;100.00;66521.78;4999537;28;20049;-70
2022/06/28 00:05:33;;;;;;;7.05;1.10;;;;;;;-145.67;100.00;66521.78;4980920;28;20053;-70
2022/06/28 00:07:58;;;;;;;5.63;0.85;;;;;;;-145.67;100.00;66521.78;5017279;28;20085;-70
2022/06/28 00:10:24;;;;;;;4.93;0.90;;;;;;;-145.67;100.00;66521.78;5000246;28;20040;-70
2022/06/28 00:12:50;;;;;;;5.97;0.95;;;;;;;-145.67;100.00;66521.78;5001387;28;20041;-69
2022/06/28 00:18:02;;;;;;;8.95;1.00;;;;;;;-145.67;100.00;66521.78;5000156;28;20038;-69
2022/06/28 00:20:28;;;;;;;5.32;1.08;;;;;;;-145.67;100.00;66521.78;4998505;28;20041;-69
2022/06/28 00:22:54;;;;;;;7.88;1.20;;;;;;;-145.67;100.00;66521.78;4999378;28;20136;-69
2022/06/28 00:25:20;;;;;;;7.25;1.05;;;;;;;-145.67;100.00;66521.78;4999288;28;20107;-69
2022/06/28 00:27:45;;;;;;;10.10;1.67;;;;;;;-145.67;100.00;66521.78;5013897;28;20041;-71
2022/06/28 00:30:11;;;;;;;10.18;1.30;;;;;;;-145.67;100.00;66521.78;5000287;28;20032;-70
2022/06/28 00:32:39;;;;;;;10.82;1.67;;;;;;;-145.67;100.00;66521.78;5014747;28;20053;-70
2022/06/28 00:35:05;;;;;;;9.40;1.58;;;;;;;-145.67;100.00;66521.78;5014088;28;20041;-70
2022/06/28 00:37:31;;;;;;;11.75;1.60;;;;;;;-145.67;100.00;66521.78;4999257;28;20045;-69
2022/06/28 00:39:57;;;;;;;12.65;1.80;;;;;;;-145.67;100.00;66521.78;4997092;28;20030;-70
2022/06/28 00:42:23;;;;;;;10.88;1.77;;;;;;;-145.67;100.00;66521.78;4999720;28;20041;-70
2022/06/28 00:44:49;;;;;;;10.57;1.70;;;;;;;-145.67;100.00;66521.78;4988957;28;20104;-70
2022/06/28 00:47:15;;;;;;;11.68;1.80;;;;;;;-145.67;100.00;66521.78;4995355;28;20488;-70
2022/06/28 00:49:41;;;;;;;13.25;1.98;;;;;;;-145.67;100.00;66521.78;5006332;28;20041;-69
2022/06/28 00:52:08;;;;;;;12.20;1.75;;;;;;;-145.67;100.00;66521.78;4997494;28;20280;-70
2022/06/28 00:54:34;;;;;;;17.25;1.90;;;;;;;-145.67;100.00;66521.78;4999065;28;20038;-70
2022/06/28 00:57:00;;;;;;;11.55;1.90;;;;;;;-145.67;100.00;66521.78;4969710;28;20064;-70
2022/06/28 00:59:28;;;;;;;12.20;1.65;;;;;;;-145.67;100.00;66521.78;4999091;28;20052;-69
2022/06/28 01:01:56;;;;;;;11.27;1.70;;;;;;;-145.67;100.00;66521.78;5001636;28;20049;-71
2022/06/28 01:04:21;;;;;;;11.57;1.50;;;;;;;-145.67;100.00;66521.78;4992093;28;20057;-70
2022/06/28 01:06:47;;;;;;;8.85;1.70;;;;;;;-145.67;100.00;66521.78;4999772;28;20068;-70
2022/06/28 01:09:12;;;;;;;10.32;1.80;;;;;;;-145.67;100.00;66521.78;4996517;28;20103;-71
2022/06/28 01:11:38;;;;;;;12.55;1.85;;;;;;;-145.67;100.00;66521.78;4996404;28;20034;-70
2022/06/28 01:14:08;;;;;;;12.73;2.10;;;;;;;-145.67;100.00;66521.78;5001240;28;20038;-71
2022/06/28 01:16:39;;;;;;;11.43;1.98;;;;;;;-145.67;100.00;66521.78;5002296;28;20235;-70
2022/06/28 01:19:06;;;;;;;15.05;2.17;;;;;;;-145.67;100.00;66521.78;4979590;28;20044;-70
2022/06/28 01:21:33;;;;;;;12.25;1.65;;;;;;;-145.67;100.00;66521.78;4988424;28;20030;-70
2022/06/28 01:23:59;;;;;;;12.15;2.00;;;;;;;-145.67;100.00;66521.78;4998371;28;20047;-69
2022/06/28 01:26:25;;;;;;;12.15;2.13;;;;;;;-145.67;100.00;66521.78;4999480;28;20049;-69
2022/06/28 01:28:55;;;;;;;13.68;1.90;;;;;;;-145.67;100.00;66521.78;4998799;28;20088;-70
2022/06/28 01:31:24;;;;;;;12.15;1.75;;;;;;;-145.67;100.00;66521.78;4997345;28;20037;-70
2022/06/28 01:33:50;;;;;;;12.65;2.08;;;;;;;-145.67;100.00;66521.78;5000006;28;20583;-70
2022/06/28 01:36:16;;;;;;;14.63;2.10;;;;;;;-145.67;100.00;66521.78;4997732;28;20088;-71
2022/06/28 01:38:45;;;;;;;13.85;1.98;;;;;;;-145.67;100.00;66521.78;4997508;28;20051;-71
2022/06/28 01:43:56;;;;;;;15.02;2.30;;;;;;;-145.67;100.00;66521.78;5014026;28;20046;-71
2022/06/28 01:46:27;;;;;;;13.07;2.13;;;;;;;-145.67;100.00;66521.78;4999295;28;20254;-71
2022/06/28 01:48:54;;;;;;;15.03;2.33;;;;;;;-145.67;100.00;66521.78;4997911;28;20037;-71
2022/06/28 01:51:19;;;;;;;13.93;2.15;;;;;;;-145.67;100.00;66521.78;4996038;28;20053;-70
2022/06/28 01:53:45;;;;;;;10.90;2.00;;;;;;;-145.67;100.00;66521.78;5015198;28;20037;-70
2022/06/28 01:56:11;;;;;;;16.10;2.28;;;;;;;-145.67;100.00;66521.78;4999443;28;20033;-70
2022/06/28 01:58:39;;;;;;;15.68;2.00;;;;;;;-145.67;100.00;66521.78;4995547;28;20033;-70
2022/06/28 02:01:05;;;;;;;11.85;2.22;;;;;;;-145.67;100.00;66521.78;4977929;28;20053;-70
2022/06/28 02:03:31;;;;;;;13.00;2.30;;;;;;;-145.67;100.00;66521.78;4982371;28;20053;-69
2022/06/28 02:05:56;;;;;;;15.52;2.38;;;;;;;-145.67;100.00;66521.78;4997300;28;20060;-69
2022/06/28 02:08:22;;;;;;;16.27;2.80;;;;;;;-145.67;100.00;66521.78;4995835;28;20061;-70
2022/06/28 02:10:48;;;;;;;14.55;1.80;;;;;;;-145.67;100.00;66521.78;4994670;28;20038;-69
2022/06/28 02:13:13;;;;;;;10.05;2.33;;;;;;;-145.67;100.00;66521.78;4975567;28;20044;-70
2022/06/28 02:15:43;;;;;;;16.52;2.75;;;;;;;-145.67;100.00;66521.78;4999003;28;20172;-72
2022/06/28 02:18:09;;;;;;;13.55;2.30;;;;;;;-145.67;100.00;66521.78;5001080;28;20879;-71
2022/06/28 02:20:37;;;;;;;15.10;2.70;;;;;;;-145.67;100.00;66521.78;5002419;28;20358;-71
2022/06/28 02:23:02;;;;;;;20.60;3.05;;;;;;;-145.67;100.00;66521.78;5003587;28;20037;-71
2022/06/28 02:25:28;;;;;;;20.42;3.00;;;;;;;-145.67;100.00;66521.78;5014046;28;20049;-70
2022/06/28 02:27:53;;;;;;;19.30;3.53;;;;;;;-145.67;100.00;66521.78;4998075;28;20718;-71
2022/06/28 02:30:21;;;;;;;15.65;2.42;;;;;;;-145.67;100.00;66521.78;4993532;28;20454;-69
2022/06/28 02:32:46;;;;;;;24.83;3.17;;;;;;;-145.67;100.00;66521.78;4996595;28;20587;-69
2022/06/28 02:40:44;;;;;;;21.80;3.08;;;;;;;-145.67;100.00;66521.78;4996281;28;20099;-70
2022/06/28 02:43:09;;;;;;;21.33;3.20;;;;;;;-145.67;100.00;66521.78;4994836;28;20084;-70
2022/06/28 02:45:35;;;;;;;19.50;3.33;;;;;;;-145.67;100.00;66521.78;4998609;28;20045;-70
2022/06/28 02:48:02;;;;;;;23.15;2.92;;;;;;;-145.67;100.00;66521.78;4998202;28;20037;-70
2022/06/28 02:50:28;;;;;;;15.55;2.72;;;;;;;-145.67;100.00;66521.78;4997867;28;20041;-69
2022/06/28 02:52:56;;;;;;;15.27;2.60;;;;;;;-145.67;100.00;66521.78;4997649;28;20048;-70
2022/06/28 02:55:22;;;;;;;21.15;2.97;;;;;;;-145.67;100.00;66521.78;4986283;28;20095;-70
2022/06/28 02:57:47;;;;;;;18.75;3.10;;;;;;;-145.67;100.00;66521.78;4998570;28;20040;-70
2022/06/28 03:00:18;;;;;;;18.27;3.50;;;;;;;-145.67;100.00;66521.78;5009047;28;20034;-71
2022/06/28 03:02:48;;;;;;;20.65;3.13;;;;;;;-145.67;100.00;66521.78;4983948;28;20042;-71
2022/06/28 03:05:16;;;;;;;21.65;2.97;;;;;;;-145.67;100.00;66521.78;4999090;28;20099;-70
2022/06/28 03:07:42;;;;;;;20.60;2.92;;;;;;;-145.67;100.00;66521.78;5001188;28;20044;-70
2022/06/28 03:10:08;;;;;;;20.13;3.13;;;;;;;-145.67;100.00;66521.78;5015467;28;20041;-70
2022/06/28 03:12:39;;;;;;;15.55;2.72;;;;;;;-145.67;100.00;66521.78;5001560;28;20033;-70
2022/06/28 03:15:05;;;;;;;14.88;2.60;;;;;;;-145.67;100.00;66521.78;4999153;28;20060;-70
2022/06/28 03:17:31;;;;;;;23.60;2.92;;;;;;;-145.67;100.00;66521.78;5001888;28;20175;-70
2022/06/28 03:19:57;;;;;;;20.40;3.22;;;;;;;-145.67;100.00;66521.78;5000073;28;20034;-70
2022/06/28 03:22:22;;;;;;;23.00;2.95;;;;;;;-145.67;100.00;66521.78;4987469;28;20676;-70
2022/06/28 03:24:48;;;;;;;17.48;2.90;;;;;;;-145.67;100.00;66521.78;5000797;28;20071;-70
2022/06/28 03:27:14;;;;;;;21.67;3.15;;;;;;;-145.67;100.00;66521.78;5016588;28;20069;-70
2022/06/28 03:29:40;;;;;;;19.67;3.13;;;;;;;-145.67;100.00;66521.78;4998784;28;20049;-70
2022/06/28 03:32:07;;;;;;;20.75;2.97;;;;;;;-145.67;100.00;66521.78;5002933;28;20038;-69
2022/06/28 03:34:33;;;;;;;18.17;2.55;;;;;;;-145.67;100.00;66521.78;5015181;28;20037;-69
2022/06/28 03:37:02;;;;;;;14.73;2.55;;;;;;;-145.67;100.00;66521.78;4999580;28;20038;-69
2022/06/28 03:39:27;;;;;;;15.30;2.55;;;;;;;-145.67;100.00;66521.78;5001913;28;20761;-69
2022/06/28 03:41:52;;;;;;;17.00;3.10;;;;;;;-145.67;100.00;66521.78;5000228;28;20437;-69
2022/06/28 03:44:18;;;;;;;13.57;2.35;;;;;;;-145.67;100.00;66521.78;4998526;28;20045;-69
2022/06/28 03:46:43;;;;;;;13.45;2.33;;;;;;;-145.67;100.00;66521.78;5001568;28;20048;-71
2022/06/28 03:49:12;;;;;;;15.57;2.67;;;;;;;-145.67;100.00;66521.78;4999435;28;20687;-70
2022/06/28 03:51:37;;;;;;;16.25;2.45;;;;;;;-145.67;100.00;66521.78;5003713;28;20037;-71
2022/06/28 03:54:03;;;;;;;15.57;2.67;;;;;;;-145.67;100.00;66521.78;4982718;28;20049;-71
2022/06/28 03:56:28;;;;;;;17.10;2.17;;;;;;;-145.67;100.00;66521.78;4977680;28;20041;-70
2022/06/28 03:58:54;;;;;;;12.95;2.03;;;;;;;-145.67;100.00;66521.78;5017782;28;20502;-69
2022/06/28 04:01:22;;;;;;;17.95;2.33;;;;;;;-145.67;100.00;66521.78;4996789;28;20383;-70
2022/06/28 04:03:47;;;;;;;13.25;3.10;;;;;;;-145.67;100.00;66521.78;5001022;28;20505;-69
2022/06/28 04:06:13;;;;;;;12.48;2.38;;;;;;;-145.67;100.00;66521.78;4998381;28;20050;-69
2022/06/28 04:08:39;;;;;;;15.73;3.08;;;;;;;-145.67;100.00;66521.78;4999235;28;20813;-69
2022/06/28 04:11:16;;;;;;;17.13;2.88;;;;;;;-145.67;100.00;66521.78;5012068;28;20034;-70
2022/06/28 04:13:52;;;;;;;13.07;2.22;;;;;;;-145.67;100.00;66521.78;4997870;28;20091;-70
2022/06/28 04:16:19;;;;;;;16.92;2.65;;;;;;;-145.67;100.00;66521.78;4985368;28;20033;-69
2022/06/28 04:18:48;;;;;;;18.65;2.92;;;;;;;-145.67;100.00;66521.78;5013923;28;20041;-70
2022/06/28 04:21:17;;;;;;;17.90;3.47;;;;;;;-145.67;100.00;66521.78;4999807;28;20482;-70
2022/06/28 04:23:43;;;;;;;10.40;3.00;;;;;;;-145.67;100.00;66521.78;5001638;28;20049;-69
2022/06/28 04:26:09;;;;;;;16.23;2.92;;;;;;;-145.67;100.00;66521.78;4998787;28;20046;-71
2022/06/28 04:28:34;;;;;;;15.25;2.67;;;;;;;-145.67;100.00;66521.78;5002727;28;20037;-71
2022/06/28 04:31:00;;;;;;;19.83;2.85;;;;;;;-145.67;100.00;66521.78;5002363;28;20044;-71
2022/06/28 04:33:29;;;;;;;14.45;2.65;;;;;;;-145.67;100.00;66521.78;4988200;28;20041;-71
2022/06/28 04:35:55;;;;;;;14.25;2.55;;;;;;;-145.67;100.00;66521.78;5013523;28;20037;-71
2022/06/28 04:38:26;;;;;;;15.85;2.83;;;;;;;-145.67;100.00;66521.78;5001415;28;20038;-71
2022/06/28 04:40:52;;;;;;;12.18;2.42;;;;;;;-145.67;100.00;66521.78;5004657;28;20141;-71
2022/06/28 04:43:20;;;;;;;15.82;2.80;;;;;;;-145.67;100.00;66521.78;4998784;28;20175;-71
2022/06/28 04:45:45;;;;;;;13.93;2.42;;;;;;;-145.67;100.00;66521.78;4997684;28;20054;-69
2022/06/28 04:48:15;;;;;;;14.50;2.90;;;;;;;-145.67;100.00;66521.78;4999400;28;20045;-70
2022/06/28 04:50:41;;;;;;;19.58;2.47;;;;;;;-145.67;100.00;66521.78;4998495;28;20578;-69
2022/06/28 04:53:09;;;;;;;16.02;2.53;;;;;;;-145.67;100.00;66521.78;4999245;28;20538;-69
2022/06/28 04:55:34;;;;;;;14.52;2.53;;;;;;;-145.67;100.00;66521.78;5000296;28;20387;-70
2022/06/28 04:58:00;;;;;;;15.07;2.55;;;;;;;-145.67;100.00;66521.78;5000015;28;21866;-71
2022/06/28 05:00:28;;;;;;;14.70;2.67;;;;;;;-145.67;100.00;66521.78;4998225;28;20038;-71
2022/06/28 05:02:56;;;;;;;17.20;2.38;;;;;;;-145.67;100.00;66521.78;4999760;28;20069;-70
2022/06/28 05:05:22;;;;;;;12.52;2.45;;;;;;;-145.67;100.00;66521.78;4987710;28;20052;-71
2022/06/28 05:07:47;;;;;;;11.52;2.63;;;;;;;-145.67;100.00;66521.78;4998170;28;20041;-72
2022/06/28 05:10:12;;;;;;;15.30;2.55;;;;;;;-145.67;100.00;66521.78;4999049;28;20041;-72
2022/06/28 05:12:38;;;;;;;13.60;1.95;;;;;;;-145.67;100.00;66521.78;4996249;28;20037;-72
2022/06/28 05:15:04;;;;;;;14.90;2.42;;;;;;;-145.67;100.00;66521.78;4997225;28;20053;-71
2022/06/28 05:17:30;;;;;;;13.63;2.75;;;;;;;-145.67;100.00;66521.78;4999436;28;20525;-72
2022/06/28 05:19:55;;;;;;;16.65;2.58;;;;;;;-145.67;100.00;66521.78;5000335;28;20053;-72
2022/06/28 05:22:21;;;;;;;15.90;3.05;;;;;;;-145.67;100.00;66521.78;4997878;28;20037;-71
2022/06/28 05:24:46;;;;;;;16.63;2.85;;;;;;;-145.67;100.00;66521.78;4998158;28;21895;-71
2022/06/28 05:27:12;;;;;;;19.13;2.85;;;;;;;-145.67;100.00;66521.78;4998690;28;20575;-70
2022/06/28 05:29:37;;;;;;;17.05;2.50;;;;;;;-145.67;100.00;66521.78;4999888;28;20038;-71
2022/06/28 05:32:04;;;;;;;21.00;2.85;;;;;;;-145.67;100.00;66521.78;4995131;28;20110;-70
2022/06/28 05:34:32;;;;;;;18.63;2.58;;;;;;;-145.67;100.00;66521.78;5011143;28;20045;-71
2022/06/28 05:36:58;;;;;;;16.55;3.30;;;;;;;-145.67;100.00;66521.78;4999282;28;20042;-71
2022/06/28 05:39:23;;;;;;;13.77;2.63;;;;;;;-145.67;100.00;66521.78;4998675;28;20367;-71
2022/06/28 05:41:49;;;;;;;14.02;2.88;;;;;;;-145.67;100.00;66521.78;4999754;28;20033;-71
2022/06/28 05:44:15;;;;;;;12.15;2.13;;;;;;;-145.67;100.00;66521.78;4996626;28;20554;-71
2022/06/28 05:46:41;;;;;;;12.25;3.40;;;;;;;-145.67;100.00;66521.78;5001156;28;20043;-72
2022/06/28 05:49:08;;;;;;;14.40;5.18;;;;;;;-145.67;100.00;66521.78;4996923;28;20796;-70
2022/06/28 05:51:35;;;;;;;17.08;4.60;;;;;;;-145.67;100.00;66521.78;5008749;28;20505;-71
2022/06/28 05:54:01;;;;;;;16.42;5.00;;;;;;;-145.67;100.00;66521.78;4997421;28;20190;-70
2022/06/28 05:56:27;;;;;;;21.52;4.40;;;;;;;-145.67;100.00;66521.78;5001410;28;20041;-71
2022/06/28 05:58:53;;;;;;;11.57;3.05;;;;;;;-145.67;100.00;66521.78;4998670;28;21860;-70
2022/06/28 06:01:19;;;;;;;18.48;2.67;;;;;;;-145.67;100.00;66521.78;4996522;28;20064;-70
2022/06/28 06:03:44;;;;;;;17.05;2.90;;;;;;;-145.67;100.00;66521.78;4980980;28;20041;-70
2022/06/28 06:06:11;;;;;;;16.02;2.67;;;;;;;-145.67;100.00;66521.78;4993123;28;20243;-70
2022/06/28 06:08:37;;;;;;;15.23;2.45;;;;;;;-145.67;100.00;66521.78;4998638;28;20033;-71
2022/06/28 06:11:03;;;;;;;12.23;2.40;;;;;;;-145.67;100.00;66521.78;4995421;28;22295;-71
2022/06/28 06:13:31;;;;;;;17.15;5.20;;;;;;;-145.67;100.00;66521.78;4986352;28;20049;-71
2022/06/28 06:15:59;;;;;;;13.75;2.80;;;;;;;-145.67;100.00;66521.78;5001155;28;20360;-72
2022/06/28 06:18:24;;;;;;;15.05;2.80;;;;;;;-145.67;100.00;66521.78;4998561;28;20119;-70
2022/06/28 06:20:55;;;;;;;16.40;3.10;;;;;;;-145.67;100.00;66521.78;5011926;28;20045;-72
2022/06/28 06:23:20;;;;;;;18.85;2.97;;;;;;;-145.67;100.00;66521.78;5012976;28;20056;-72
2022/06/28 06:25:46;;;;;;;13.07;2.97;;;;;;;-145.67;100.00;66521.78;4997465;28;20049;-72
2022/06/28 06:28:14;;;;;;;13.52;2.72;;;;;;;-145.67;100.00;66521.78;4995618;28;20033;-71
2022/06/28 06:30:42;;;;;;;15.15;3.30;;;;;;;-145.67;100.00;66521.78;4997958;28;20099;-72
2022/06/28 06:33:08;;;;;;;12.30;2.63;;;;;;;-145.67;100.00;66521.78;4998368;28;20596;-72
2022/06/28 06:35:34;;;;;;;12.52;2.47;;;;;;;-145.67;100.00;66521.78;4998477;28;20030;-72
2022/06/28 06:38:02;;;;;;;11.98;2.38;;;;;;;-145.67;100.00;66521.78;4998919;28;20200;-71
2022/06/28 06:40:28;;;;;;;17.42;3.13;;;;;;;-145.67;100.00;66521.78;4997897;28;20033;-71
2022/06/28 06:42:54;;;;;;;17.13;3.60;;;;;;;-145.67;100.00;66521.78;5004036;28;20052;-71
2022/06/28 06:45:19;;;;;;;16.05;2.72;;;;;;;-145.67;100.00;66521.78;4998922;28;22232;-71
2022/06/28 06:47:45;;;;;;;15.15;2.95;;;;;;;-145.67;100.00;66521.78;4998029;28;20057;-72
2022/06/28 06:50:11;;;;;;;17.02;3.17;;;;;;;-145.67;100.00;66521.78;5012848;28;20470;-71
2022/06/28 06:52:41;;;;;;;15.48;2.85;;;;;;;-145.67;100.00;66521.78;4999003;28;20124;-70
2022/06/28 06:55:07;;;;;;;16.17;2.90;;;;;;;-145.67;100.00;66521.78;4998943;28;20700;-72
2022/06/28 06:57:33;;;;;;;13.73;2.88;;;;;;;-145.67;100.00;66521.78;4986153;28;20470;-73
2022/06/28 06:59:59;;;;;;;12.10;3.08;;;;;;;-145.67;100.00;66521.78;4998739;28;20087;-72
2022/06/28 07:02:24;;;;;;;15.32;3.13;;;;;;;-145.67;100.00;66521.78;5002082;28;22460;-71
2022/06/28 07:04:53;;;;;;;13.90;2.88;;;;;;;-145.67;100.00;66521.78;4994218;28;20052;-71
2022/06/28 07:07:18;;;;;;;18.60;2.90;;;;;;;-145.67;100.00;66521.78;4994029;28;20435;-71
2022/06/28 07:09:44;;;;;;;18.63;2.90;;;;;;;-145.67;100.00;66521.78;4999213;28;20120;-70
2022/06/28 07:12:09;;;;;;;19.20;3.78;;;;;;;-145.67;100.00;66521.78;4996248;28;20398;-70
2022/06/28 07:14:35;;;;;;;14.70;3.08;;;;;;;-145.67;100.00;66521.78;4997586;28;20057;-70
2022/06/28 07:17:01;;;;;;;13.32;2.42;;;;;;;-145.67;100.00;66521.78;4996467;28;20459;-71
2022/06/28 07:19:26;;;;;;;16.88;2.80;;;;;;;-145.67;100.00;66521.78;4997867;28;20044;-70
2022/06/28 07:21:52;;;;;;;16.02;2.88;;;;;;;-145.67;100.00;66521.78;4998239;28;20033;-69
2022/06/28 07:24:18;;;;;;;13.77;2.65;;;;;;;-145.67;100.00;66521.78;5010817;28;20368;-70
2022/06/28 07:26:46;;;;;;;17.90;2.72;;;;;;;-145.67;100.00;66521.78;4988476;28;21195;-69
2022/06/28 07:29:14;;;;;;;14.40;2.78;;;;;;;-145.67;100.00;66521.78;5000294;28;20121;-69
2022/06/28 07:31:41;;;;;;;16.08;2.60;;;;;;;-145.67;100.00;66521.78;4997036;28;20045;-69
2022/06/28 07:34:07;;;;;;;18.60;2.78;;;;;;;-145.67;100.00;66521.78;4999162;28;20033;-69
2022/06/28 07:36:32;;;;;;;18.70;2.92;;;;;;;-145.67;100.00;66521.78;4997097;28;20052;-70
2022/06/28 07:38:58;;;;;;;14.43;2.60;;;;;;;-145.67;100.00;66521.78;4998708;28;20040;-70
2022/06/28 07:41:24;;;;;;;17.58;2.40;;;;;;;-145.67;100.00;66521.78;4996807;28;20228;-70
2022/06/28 07:43:53;;;;;;;16.58;3.00;;;;;;;-145.67;100.00;66521.78;4998277;28;20102;-69
2022/06/28 07:46:19;;;;;;;18.50;3.15;;;;;;;-145.67;100.00;66521.78;4998400;28;20057;-71
2022/06/28 07:48:45;;;;;;;21.83;3.15;;;;;;;-145.67;100.00;66521.78;4998402;28;20038;-71
2022/06/28 07:53:58;;;;;;;14.48;2.42;;;;;;;-145.67;100.00;66521.78;5002543;28;20038;-71
2022/06/28 07:56:29;;;;;;;14.45;2.75;;;;;;;-145.67;100.00;66521.78;5002325;28;20042;-71
2022/06/28 07:58:57;;;;;;;14.00;2.60;;;;;;;-145.67;100.00;66521.78;5002017;28;20034;-71
2022/06/28 08:01:22;;;;;;;14.73;2.45;;;;;;;-145.67;100.00;66521.78;5007806;28;20103;-71
2022/06/28 08:03:50;;;;;;;13.18;2.78;;;;;;;-145.67;100.00;66521.78;5001355;28;20045;-71
2022/06/28 08:06:15;;;;;;;16.45;2.53;;;;;;;-145.67;100.00;66521.78;5003564;28;20053;-71
2022/06/28 08:08:43;;;;;;;12.32;2.78;;;;;;;-145.67;100.00;66521.78;5001110;28;20746;-69
2022/06/28 08:11:09;;;;;;;13.38;2.78;;;;;;;-145.67;100.00;66521.78;5000982;28;20489;-70
2022/06/28 08:13:36;;;;;;;14.38;2.60;;;;;;;-145.67;100.00;66521.78;5003608;28;25283;-70
2022/06/28 08:16:01;;;;;;;14.48;3.17;;;;;;;-145.67;100.00;66521.78;5003211;28;20342;-71
2022/06/28 08:18:27;;;;;;;15.38;2.72;;;;;;;-145.67;100.00;66521.78;5003198;28;20041;-71
2022/06/28 08:20:55;;;;;;;15.23;2.75;;;;;;;-145.67;100.00;66521.78;5017025;28;20053;-71
2022/06/28 08:23:23;;;;;;;10.20;2.47;;;;;;;-145.67;100.00;66521.78;5001128;28;20511;-70
2022/06/28 08:25:51;;;;;;;13.98;2.50;;;;;;;-145.67;100.00;66521.78;5003097;28;20060;-71
2022/06/28 08:28:17;;;;;;;16.45;2.88;;;;;;;-145.67;100.00;66521.78;5001644;28;20034;-71
2022/06/28 08:30:45;;;;;;;13.77;3.00;;;;;;;-145.67;100.00;66521.78;5001894;28;20041;-72
2022/06/28 08:33:11;;;;;;;15.82;2.95;;;;;;;-145.67;100.00;66521.78;5003728;28;20128;-71
2022/06/28 08:35:38;;;;;;;13.43;2.88;;;;;;;-145.67;100.00;66521.78;5015490;28;20478;-73
2022/06/28 08:38:05;;;;;;;13.63;2.40;;;;;;;-145.67;100.00;66521.78;5004101;28;20033;-72
2022/06/28 08:40:34;;;;;;;13.25;2.40;;;;;;;-145.67;100.00;66521.78;5001917;28;20041;-71
2022/06/28 08:43:01;;;;;;;15.52;2.85;;;;;;;-145.67;100.00;66521.78;5001283;28;20044;-71
2022/06/28 08:45:28;;;;;;;15.45;2.88;;;;;;;-145.67;100.00;66521.78;5001067;28;20164;-71
2022/06/28 08:47:56;;;;;;;11.60;2.88;;;;;;;-145.67;100.00;66521.78;5002975;28;20033;-69
2022/06/28 08:50:34;;;;;;;12.80;2.55;;;;;;;-145.67;100.00;66521.78;4996366;28;20350;-72
2022/06/28 08:53:01;;;;;;;11.00;2.63;;;;;;;-145.67;100.00;66521.78;4988852;28;20037;-71
2022/06/28 08:55:27;;;;;;;11.02;2.60;;;;;;;-145.67;100.00;66521.78;4998457;28;20037;-71
2022/06/28 08:57:54;;;;;;;10.85;2.30;;;;;;;-145.67;100.00;66521.78;5008045;28;20033;-72
2022/06/28 09:00:19;;;;;;;10.63;2.25;;;;;;;-145.67;100.00;66521.78;5014194;28;20120;-71
2022/06/28 09:02:46;;;;;;;12.00;2.55;;;;;;;-145.67;100.00;66521.78;4999969;28;20175;-73
2022/06/28 09:05:15;;;;;;;12.38;2.63;;;;;;;-145.67;100.00;66521.78;4999952;28;20057;-71
2022/06/28 09:07:40;;;;;;;10.32;2.28;;;;;;;-145.67;100.00;66521.78;5015824;28;20116;-71
2022/06/28 09:10:06;;;;;;;11.15;2.53;;;;;;;-145.67;100.00;66521.78;5014902;28;20042;-71
2022/06/28 09:12:34;;;;;;;10.23;2.55;;;;;;;-145.67;100.00;66521.78;5001323;28;20690;-72
2022/06/28 09:15:04;;;;;;;12.27;2.45;;;;;;;-145.67;100.00;66521.78;4983696;28;20053;-73
2022/06/28 09:17:31;;;;;;;12.20;2.40;;;;;;;-145.67;100.00;66521.78;4979285;28;20502;-72
2022/06/28 09:20:05;;;;;;;9.07;2.10;;;;;;;-145.67;100.00;66521.78;4990300;28;20036;-73
2022/06/28 09:22:43;;;;;;;10.27;2.08;;;;;;;-145.67;100.00;66521.78;4978874;28;20045;-73
2022/06/28 09:25:32;;;;;;;10.48;2.33;;;;;;;-145.67;100.00;66521.78;4979494;28;20666;-72
2022/06/28 09:27:59;;;;;;;12.43;2.38;;;;;;;-145.67;100.00;66521.78;5000595;28;20490;-72
2022/06/28 09:30:26;;;;;;;10.07;2.28;;;;;;;-145.67;100.00;66521.78;4987794;28;20041;-71
2022/06/28 09:32:52;;;;;;;10.43;2.25;;;;;;;-145.67;100.00;66521.78;4988295;28;20025;-73
2022/06/28 09:35:19;;;;;;;11.32;2.28;;;;;;;-145.67;100.00;66521.78;5005209;28;20053;-72
2022/06/28 09:37:53;;;;;;;8.38;2.35;;;;;;;-145.67;100.00;66521.78;4982174;28;20090;-73
2022/06/28 09:40:24;;;;;;;8.00;2.00;;;;;;;-145.67;100.00;66521.78;5001179;28;20064;-73
2022/06/28 09:43:15;;;;;;;9.20;2.25;;;;;;;-145.67;100.00;66521.78;4988653;28;20121;-76
2022/06/28 09:45:49;;;;;;;15.77;2.40;;;;;;;-145.67;100.00;66521.78;4965860;28;20158;-72
2022/06/28 09:48:21;;;;;;;11.50;2.00;;;;;;;-145.67;100.00;66521.78;5013597;28;20848;-74
2022/06/28 09:50:46;;;;;;;;;;;;;;;-145.67;100.00;66521.78;4997048;28;20134;-73
2022/06/28 09:53:15;;;;;;;10.85;2.20;;;;;;;-145.67;100.00;66521.78;4999815;28;20155;-73
2022/06/28 09:55:42;;;;;;;15.18;2.88;;;;;;;-145.67;100.00;66521.78;4971682;28;20129;-73
2022/06/28 09:58:09;;;;;;;13.25;2.20;;;;;;;-145.67;100.00;66521.78;4992357;28;20048;-72
2022/06/28 10:00:35;;;;;;;11.65;2.30;;;;;;;-145.67;100.00;66521.78;4999325;28;20057;-72
2022/06/28 10:03:01;;;;;;;14.32;2.58;;;;;;;-145.67;100.00;66521.78;4998371;28;20049;-73
2022/06/28 10:05:28;;;;;;;14.30;2.45;;;;;;;-145.67;100.00;66521.78;4997853;28;20165;-74
2022/06/28 10:07:53;;;;;;;10.73;2.13;;;;;;;-145.67;100.00;66521.78;4996907;28;20042;-72
2022/06/28 10:10:22;;;;;;;13.52;2.25;;;;;;;-145.67;100.00;66521.78;4993933;28;20030;-73
2022/06/28 10:15:45;;;;;;;12.80;2.53;;;;;;;-145.67;100.00;66521.78;4996724;28;20036;-73
2022/06/28 10:18:21;;;;;;;11.23;2.28;;;;;;;-145.67;100.00;66521.78;5001583;28;20037;-73
2022/06/28 10:20:47;;;;;;;10.77;2.20;;;;;;;-145.67;100.00;66521.78;4981083;28;20056;-73
2022/06/28 10:23:20;;;;;;;11.80;2.60;;;;;;;-145.67;100.00;66521.78;4981420;28;20355;-74
2022/06/28 10:26:03;;;;;;;13.20;2.80;;;;;;;-145.67;100.00;66521.78;4998006;28;20055;-74
2022/06/28 10:28:49;;;;;;;12.20;2.58;;;;;;;-145.67;100.00;66521.78;4967868;28;20077;-73
2022/06/28 10:31:21;;;;;;;13.88;2.30;;;;;;;-145.67;100.00;66521.78;4966428;28;20296;-73
2022/06/28 10:33:48;;;;;;;12.27;2.58;;;;;;;-145.67;100.00;66521.78;4979814;28;20576;-74
2022/06/28 10:36:15;;;;;;;11.55;2.72;;;;;;;-145.67;100.00;66521.78;4992056;28;20033;-73
2022/06/28 10:39:02;;;;;;;12.30;2.42;;;;;;;-145.67;100.00;66521.78;4977873;28;20034;-75
2022/06/28 10:41:44;;;;;;;11.57;2.60;;;;;;;-145.67;100.00;66521.78;4980752;28;20038;-74
2022/06/28 10:44:29;;;;;;;17.55;2.45;;;;;;;-145.67;100.00;66521.78;4977757;28;20038;-74
2022/06/28 10:47:00;;;;;;;10.90;2.15;;;;;;;-145.67;100.00;66521.78;4983394;28;20052;-73
2022/06/28 10:49:28;;;;;;;15.65;2.60;;;;;;;-145.67;100.00;66521.78;4994600;28;20041;-73
2022/06/28 10:52:26;;;;;;;11.38;2.22;;;;;;;-145.67;100.00;66521.78;4996357;28;20693;-72
2022/06/28 10:54:52;;;;;;;10.70;1.95;;;;;;;-145.67;100.00;66521.78;4978600;28;20133;-74
2022/06/28 10:57:30;;;;;;;10.43;2.15;;;;;;;-145.67;100.00;66521.78;4979014;28;20038;-73
2022/06/28 11:00:00;;;;;;;10.55;2.25;;;;;;;-145.67;100.00;66521.78;4992598;28;21158;-73
2022/06/28 11:02:44;;;;;;;11.38;2.38;;;;;;;-145.67;100.00;66521.78;4974768;28;20048;-71
2022/06/28 11:05:10;;;;;;;10.70;2.28;;;;;;;-145.67;100.00;66521.78;4974291;28;20797;-73
2022/06/28 11:07:37;;;;;;;12.15;2.30;;;;;;;-145.67;100.00;66521.78;4975733;28;20034;-72
2022/06/28 11:10:13;;;;;;;12.40;2.45;;;;;;;-145.67;100.00;66521.78;4978027;28;20470;-74
2022/06/28 11:12:41;;;;;;;8.85;2.03;;;;;;;-145.67;100.00;66521.78;4974798;28;20499;-74
2022/06/28 11:15:11;;;;;;;8.82;1.90;;;;;;;-145.67;100.00;66521.78;4976563;28;20519;-73
2022/06/28 11:17:39;;;;;;;9.25;2.00;;;;;;;-145.67;100.00;66521.78;4953888;28;20034;-74
2022/06/28 11:20:11;;;;;;;15.35;2.42;;;;;;;-145.67;100.00;66521.78;4981723;28;20053;-73